Marion, SC

12:17 AM EST on January 17, 2018 (GMT -0500)
Marion County

Weather History for KMAO - December, 2012

Change the Weather History Date:

Wednesday, December 5, 2012

  Actual Average (KFLO) Record (KFLO)
Temperature  
Mean Temperature 62 °F -  
Max Temperature 73 °F 60 °F 82 °F (1998)
Min Temperature 51 °F 36 °F 21 °F (2000)
Degree Days  
Heating Degree Days 3    
Growing Degree Days 12 (Base 50)    
Moisture  
Dew Point 55 °F    
Average Humidity 82    
Maximum Humidity 100    
Minimum Humidity 46    
Precipitation  
Precipitation 0.00 in - - ()
Sea Level Pressure  
Sea Level Pressure 30.17 in    
Wind  
Wind Speed 5 mph (SW)    
Max Wind Speed 15 mph    
Max Gust Speed 18 mph    
Visibility 9 miles    
Events      
Averages and records for this station are not official NWS values.
T = Trace of Precipitation, MM = Missing Value Source: NWS Daily Summary

Daily Weather History Graph

Daily Weather History Graph

Search for Another Location

Airport or City:

Trip Planner

Search our weather history database for the weather conditions in past years. The results will help you decide how hot, cold, wet, or windy it might be!

Date:

Astronomy

Dec. 05, 2012 Rise Set
Actual Time 7:08 AM EST 5:07 PM EST
Civil Twilight 6:41 AM EST 5:35 PM EST
Nautical Twilight 6:10 AM EST 6:06 PM EST
Astronomical Twilight 5:39 AM EST 6:36 PM EST
Moon 11:41 PM EST (12/5) 11:43 AM EST (12/5)
Length of Visible Light 10h 53m
Length of Day
9h 58m
Waning Gibbous, 60% of the Moon is Illuminated
Dec 5
Waning Gibbous
Dec 6
Last Quarter
Dec 13
New
Dec 20
First Quarter
Dec 28
Full

Hourly Weather History & Observations

Time (EST) Temp. Dew Point Humidity Pressure Visibility Wind Dir Wind Speed Gust Speed Precip Events Conditions
12:15 AM 55.4 °F 55.4 °F 100% 30.24 in 5.0 mi South 4.6 mph - N/A   Scattered Clouds
12:35 AM 55.4 °F 55.4 °F 100% 30.23 in 7.0 mi South 5.8 mph - N/A   Mostly Cloudy
12:55 AM 55.4 °F 55.4 °F 100% 30.22 in 7.0 mi South 6.9 mph - N/A   Mostly Cloudy
1:15 AM 55.4 °F 55.4 °F 100% 30.22 in 10.0 mi SSW 6.9 mph - N/A   Mostly Cloudy
1:35 AM 57.2 °F 57.2 °F 100% 30.22 in 10.0 mi SSW 6.9 mph - N/A   Scattered Clouds
1:55 AM 55.4 °F 55.4 °F 100% 30.22 in 10.0 mi SSW 6.9 mph - N/A   Scattered Clouds
2:15 AM 55.4 °F 55.4 °F 100% 30.21 in 10.0 mi SSW 5.8 mph - N/A   Mostly Cloudy
2:35 AM 55.4 °F 55.4 °F 100% 30.21 in 10.0 mi SSW 4.6 mph - N/A   Mostly Cloudy
2:55 AM 55.4 °F 55.4 °F 100% 30.21 in 10.0 mi SSW 5.8 mph - N/A   Mostly Cloudy
3:15 AM 55.4 °F 55.4 °F 100% 30.20 in 10.0 mi SSW 4.6 mph - N/A   Overcast
3:35 AM 55.4 °F 55.4 °F 100% 30.20 in 10.0 mi SSW 3.5 mph - N/A   Mostly Cloudy
3:55 AM 55.4 °F 55.4 °F 100% 30.19 in 10.0 mi SSW 4.6 mph - N/A   Scattered Clouds
4:15 AM 55.4 °F 55.4 °F 100% 30.18 in 10.0 mi SSW 4.6 mph - N/A   Clear
4:35 AM 53.6 °F 53.6 °F 100% 30.18 in 10.0 mi SW 3.5 mph - N/A   Clear
4:55 AM 53.6 °F 53.6 °F 100% 30.18 in 7.0 mi Calm Calm - N/A   Clear
5:15 AM 53.6 °F 53.6 °F 100% 30.18 in 7.0 mi Calm Calm - N/A   Clear
5:35 AM 53.6 °F 53.6 °F 100% 30.18 in 1.5 mi SSW 3.5 mph - N/A   Mist
5:55 AM 53.6 °F 53.6 °F 100% 30.18 in 10.0 mi SSW 3.5 mph - N/A   Clear
6:15 AM 53.6 °F 53.6 °F 100% 30.19 in 10.0 mi SSW 3.5 mph - N/A   Clear
6:35 AM 51.8 °F 51.8 °F 100% 30.19 in 7.0 mi SSW 3.5 mph - N/A   Clear
6:55 AM 53.6 °F 53.6 °F 100% 30.20 in 10.0 mi SSW 3.5 mph - N/A   Clear
7:15 AM 51.8 °F 51.8 °F 100% 30.20 in 7.0 mi SSW 3.5 mph - N/A   Clear
7:35 AM 51.8 °F 51.8 °F 100% 30.20 in 5.0 mi SSW 3.5 mph - N/A   Clear
7:55 AM 53.6 °F 53.6 °F 100% 30.21 in 10.0 mi Calm Calm - N/A   Clear
9:55 AM 64.4 °F 55.4 °F 73% 30.22 in 10.0 mi SW 6.9 mph - N/A   Clear
10:15 AM 66.2 °F 55.4 °F 68% 30.21 in 10.0 mi SW 6.9 mph - N/A   Clear
10:35 AM 68.0 °F 55.4 °F 64% 30.20 in 10.0 mi SW 6.9 mph - N/A   Scattered Clouds
10:55 AM 69.8 °F 53.6 °F 56% 30.20 in 10.0 mi SW 11.5 mph - N/A   Clear
11:15 AM 71.6 °F 53.6 °F 53% 30.20 in 10.0 mi WSW 9.2 mph - N/A   Scattered Clouds
11:35 AM 71.6 °F 51.8 °F 50% 30.18 in 10.0 mi SW 10.4 mph 17.3 mph N/A   Scattered Clouds
11:55 AM 71.6 °F 51.8 °F 50% 30.17 in 10.0 mi SW 10.4 mph 16.1 mph N/A   Mostly Cloudy
12:15 PM 71.6 °F 50.0 °F 46% 30.16 in 10.0 mi SW 8.1 mph - N/A   Overcast
12:35 PM 71.6 °F 51.8 °F 50% 30.15 in 10.0 mi WSW 8.1 mph - N/A   Overcast
12:55 PM 71.6 °F 50.0 °F 46% 30.14 in 10.0 mi WSW 9.2 mph 17.3 mph N/A   Overcast
1:15 PM 71.6 °F 50.0 °F 46% 30.14 in 10.0 mi WSW 6.9 mph - N/A   Overcast
1:35 PM 71.6 °F 50.0 °F 46% 30.13 in 10.0 mi WSW 10.4 mph - N/A   Overcast
1:55 PM 73.4 °F 51.8 °F 47% 30.12 in 10.0 mi WSW 8.1 mph - N/A   Overcast
2:15 PM 71.6 °F 50.0 °F 46% 30.11 in 10.0 mi WSW 5.8 mph - N/A   Mostly Cloudy
2:35 PM 71.6 °F 51.8 °F 50% 30.11 in 10.0 mi WSW 8.1 mph - N/A   Mostly Cloudy
2:55 PM 71.6 °F 51.8 °F 50% 30.10 in 10.0 mi SW 6.9 mph - N/A   Overcast
3:15 PM 71.6 °F 51.8 °F 50% 30.10 in 10.0 mi SW 6.9 mph - N/A   Overcast
3:35 PM 71.6 °F 51.8 °F 50% 30.10 in 10.0 mi SW 3.5 mph - N/A   Overcast
3:55 PM 71.6 °F 53.6 °F 53% 30.10 in 10.0 mi West 3.5 mph - N/A   Overcast
4:15 PM 69.8 °F 55.4 °F 60% 30.10 in 10.0 mi Calm Calm - N/A   Overcast
4:35 PM 66.2 °F 59.0 °F 78% 30.10 in 10.0 mi Calm Calm - N/A   Overcast
4:55 PM 64.4 °F 59.0 °F 83% 30.10 in 10.0 mi Calm Calm - N/A   Overcast
5:15 PM 62.6 °F 59.0 °F 88% 30.10 in 10.0 mi Calm Calm - N/A   Overcast
5:35 PM 62.6 °F 57.2 °F 82% 30.11 in 10.0 mi Calm Calm - N/A   Overcast
5:55 PM 62.6 °F 57.2 °F 82% 30.11 in 10.0 mi Calm Calm - N/A   Overcast
6:15 PM 62.6 °F 55.4 °F 77% 30.12 in 10.0 mi Calm Calm - N/A   Overcast
6:35 PM 66.2 °F 55.4 °F 68% 30.13 in 10.0 mi NNW 8.1 mph - N/A   Overcast
6:55 PM 64.4 °F 57.2 °F 77% 30.13 in 10.0 mi North 8.1 mph - N/A   Overcast
7:15 PM 64.4 °F 59.0 °F 83% 30.14 in 10.0 mi NNW 5.8 mph - N/A   Overcast
7:35 PM 62.6 °F 59.0 °F 88% 30.15 in 10.0 mi North 8.1 mph - N/A   Overcast
7:55 PM 62.6 °F 59.0 °F 88% 30.15 in 10.0 mi North 9.2 mph - N/A   Overcast
8:15 PM 62.6 °F 59.0 °F 88% 30.16 in 10.0 mi North 9.2 mph - N/A   Overcast
8:35 PM 60.8 °F 59.0 °F 94% 30.16 in 10.0 mi NNE 11.5 mph 18.4 mph N/A   Overcast
8:55 PM 59.0 °F 57.2 °F 94% 30.17 in 10.0 mi NNE 15.0 mph - N/A   Overcast
9:15 PM 59.0 °F 57.2 °F 94% 30.17 in 10.0 mi NNE 9.2 mph - N/A   Overcast
9:55 PM 59.0 °F 57.2 °F 94% 30.17 in 10.0 mi NNE 5.8 mph - N/A   Overcast
10:15 PM 59.0 °F 59.0 °F 100% 30.17 in 10.0 mi NNE 4.6 mph - N/A   Overcast
10:35 PM 59.0 °F 57.2 °F 94% 30.17 in 10.0 mi NNE 6.9 mph - N/A   Overcast
10:55 PM 59.0 °F 57.2 °F 94% 30.18 in 10.0 mi NNE 5.8 mph - N/A   Overcast
11:15 PM 59.0 °F 57.2 °F 94% 30.17 in 10.0 mi NE 5.8 mph - N/A   Overcast
11:35 PM 59.0 °F 57.2 °F 94% 30.18 in 10.0 mi NNE 4.6 mph - N/A   Overcast
11:55 PM 59.0 °F 59.0 °F 100% 30.17 in 10.0 mi NNE 8.1 mph - N/A   Overcast